Terminal Aerodrome Forecast
Issued by NWS

Home | Current Version | Previous Version | Text Only | Print | Product List | Glossary On
Versions: 1 2 3 4 5 6 7 8 9 10 11 12
374
FTPA31 PHFO 202326
TAFHOG
TAF
PHOG 202326Z 2100/2124 06017G25KT P6SM FEW025 SCT050 BKN250
     FM210500 06012KT P6SM FEW025 SCT050 BKN250
     FM212000 06016G24KT P6SM FEW030 SCT050 BKN250=

USA.gov is the U.S. government's official web portal to all federal, state and local government web resources and services.